createdAt,value
2023-01-08T00:04:38.324Z,12.62
2023-01-08T00:09:41.737Z,12.63
2023-01-08T00:14:44.824Z,12.63
2023-01-08T00:19:48.073Z,12.61
2023-01-08T00:24:51.354Z,12.60
2023-01-08T00:29:54.687Z,12.59
2023-01-08T00:34:58.386Z,12.62
2023-01-08T00:40:01.368Z,12.64
2023-01-08T00:45:06.305Z,12.62
2023-01-08T00:50:10.191Z,12.60
2023-01-08T00:55:13.614Z,12.63
2023-01-08T01:00:17.675Z,12.67
2023-01-08T01:05:21.068Z,12.73
2023-01-08T01:10:25.010Z,12.77
2023-01-08T01:15:28.482Z,12.93
2023-01-08T01:20:32.073Z,12.99
2023-01-08T01:25:38.485Z,12.91
2023-01-08T01:30:41.968Z,12.82
2023-01-08T01:35:45.738Z,12.34
2023-01-08T01:40:50.489Z,11.94
2023-01-08T01:45:54.310Z,11.77
2023-01-08T01:50:57.880Z,11.78
2023-01-08T01:56:01.849Z,11.91
2023-01-08T02:01:08.578Z,12.24
2023-01-08T02:06:48.392Z,12.42
2023-01-08T02:12:04.725Z,12.52
2023-01-08T02:17:13.128Z,12.51
2023-01-08T02:22:25.507Z,12.38
2023-01-08T02:27:31.051Z,12.28
2023-01-08T02:32:38.570Z,12.18
2023-01-08T02:37:43.345Z,12.09
2023-01-08T02:43:24.980Z,12.00
2023-01-08T02:48:37.946Z,11.95
2023-01-08T02:53:43.305Z,11.90
2023-01-08T02:58:48.175Z,11.88
2023-01-08T03:03:57.000Z,11.91
2023-01-08T03:09:02.558Z,11.94
2023-01-08T03:14:41.745Z,11.98
2023-01-08T03:19:50.963Z,11.99
2023-01-08T03:24:55.570Z,11.96
2023-01-08T03:30:00.156Z,11.95
2023-01-08T03:35:08.243Z,11.91
2023-01-08T03:40:18.334Z,11.88
2023-01-08T03:45:24.379Z,11.83
2023-01-08T03:50:31.822Z,11.81
2023-01-08T03:55:36.328Z,11.80
2023-01-08T04:00:39.772Z,11.81
2023-01-08T04:05:44.044Z,11.80
2023-01-08T04:10:47.503Z,11.80
2023-01-08T04:15:51.980Z,11.75
2023-01-08T04:20:55.390Z,11.69
2023-01-08T04:25:58.937Z,11.65
2023-01-08T04:31:10.272Z,11.60
2023-01-08T04:36:14.013Z,11.53
2023-01-08T04:41:18.460Z,11.45
2023-01-08T04:46:21.948Z,11.33
2023-01-08T04:51:25.599Z,11.30
2023-01-08T04:56:30.195Z,11.32
2023-01-08T05:01:33.386Z,11.33
2023-01-08T05:06:36.900Z,11.34
2023-01-08T05:11:40.752Z,11.35
2023-01-08T05:16:45.534Z,11.41
2023-01-08T05:21:49.074Z,11.46
2023-01-08T05:26:52.666Z,11.52
2023-01-08T05:31:56.281Z,11.62
2023-01-08T05:36:59.559Z,11.74
2023-01-08T05:42:03.666Z,11.81
2023-01-08T05:47:08.281Z,11.91
2023-01-08T05:52:12.927Z,12.00
2023-01-08T05:57:16.412Z,12.07
2023-01-08T06:02:19.887Z,12.20
2023-01-08T06:07:23.309Z,12.31
2023-01-08T06:12:26.563Z,12.66
2023-01-08T06:17:29.840Z,12.95
2023-01-08T06:22:33.711Z,12.78
2023-01-08T06:27:39.291Z,12.62
2023-01-08T06:32:43.651Z,12.55
2023-01-08T06:37:46.737Z,12.51
2023-01-08T06:42:50.166Z,12.50
2023-01-08T06:47:53.925Z,12.54
2023-01-08T06:52:58.654Z,12.60
2023-01-08T06:58:01.905Z,12.67
2023-01-08T07:03:05.710Z,12.75
2023-01-08T07:08:15.999Z,12.77
2023-01-08T07:13:19.483Z,12.83
2023-01-08T07:18:22.831Z,12.85
2023-01-08T07:23:25.858Z,12.91
2023-01-08T07:28:29.917Z,12.98
2023-01-08T07:33:35.756Z,13.13
2023-01-08T07:38:39.363Z,13.21
2023-01-08T07:43:42.832Z,13.31
2023-01-08T07:48:47.185Z,13.50
2023-01-08T07:53:51.147Z,13.46
2023-01-08T07:58:54.866Z,13.42
2023-01-08T08:03:58.243Z,13.38
2023-01-08T08:09:01.332Z,13.41
2023-01-08T08:14:04.986Z,13.45
2023-01-08T08:19:08.505Z,13.47
2023-01-08T08:24:12.016Z,13.53
2023-01-08T08:29:15.993Z,13.60
2023-01-08T08:34:19.406Z,13.69
2023-01-08T08:39:22.716Z,13.83
2023-01-08T08:44:26.103Z,13.93
2023-01-08T08:49:29.250Z,13.99
2023-01-08T08:54:32.675Z,14.09
2023-01-08T08:59:36.584Z,14.13
2023-01-08T09:04:40.039Z,14.17
2023-01-08T09:09:43.557Z,14.19
2023-01-08T09:14:46.934Z,14.24
2023-01-08T09:19:50.152Z,14.31
2023-01-08T09:24:53.210Z,14.41
2023-01-08T09:29:56.806Z,14.49
2023-01-08T09:35:00.395Z,14.55
2023-01-08T09:40:04.218Z,14.62
2023-01-08T09:45:23.101Z,14.69
2023-01-08T09:50:28.645Z,14.70
2023-01-08T09:55:34.533Z,14.84
2023-01-08T10:00:38.400Z,14.90
2023-01-08T10:05:42.531Z,14.98
2023-01-08T10:10:46.351Z,15.07
2023-01-08T10:15:50.162Z,15.07
2023-01-08T10:20:54.747Z,15.10
2023-01-08T10:26:01.057Z,15.18
2023-01-08T10:31:08.744Z,15.20
2023-01-08T10:36:23.001Z,15.21
2023-01-08T10:41:27.501Z,15.32
2023-01-08T10:46:43.861Z,15.42
2023-01-08T10:51:52.522Z,15.45
2023-01-08T10:56:56.346Z,15.54
2023-01-08T11:02:00.298Z,15.66
2023-01-08T11:07:07.420Z,15.71
2023-01-08T11:12:34.925Z,15.57
2023-01-08T11:17:38.397Z,15.39
2023-01-08T11:22:41.787Z,15.32
2023-01-08T11:27:45.304Z,15.34
2023-01-08T11:33:05.138Z,15.39
2023-01-08T11:38:13.429Z,15.55
2023-01-08T11:43:38.395Z,15.68
2023-01-08T11:49:14.215Z,15.59
2023-01-08T11:54:55.228Z,15.49
2023-01-08T12:00:43.191Z,15.38
2023-01-08T12:06:11.703Z,15.28
2023-01-08T12:11:24.105Z,15.18
2023-01-08T12:16:50.856Z,15.08
2023-01-08T12:22:00.143Z,15.03
2023-01-08T12:27:19.512Z,15.00
2023-01-08T12:32:44.340Z,15.16
2023-01-08T12:38:02.652Z,15.32
2023-01-08T12:43:14.389Z,15.45
2023-01-08T12:48:24.818Z,15.51
2023-01-08T12:53:45.173Z,15.58
2023-01-08T12:59:07.362Z,15.58
2023-01-08T13:04:11.760Z,15.63
2023-01-08T13:09:24.489Z,15.71
2023-01-08T13:14:29.135Z,15.80
2023-01-08T13:19:45.527Z,15.88
2023-01-08T13:24:48.910Z,15.85
2023-01-08T13:29:53.092Z,15.80
2023-01-08T13:35:08.768Z,15.74
2023-01-08T13:40:43.020Z,15.69
2023-01-08T13:46:19.635Z,15.60
2023-01-08T13:51:35.942Z,15.54
2023-01-08T13:56:42.442Z,15.43
2023-01-08T14:01:54.600Z,15.37
2023-01-08T14:07:15.099Z,15.28
2023-01-08T14:12:22.280Z,15.20
2023-01-08T14:17:34.841Z,15.09
2023-01-08T14:22:41.732Z,15.01
2023-01-08T14:27:58.647Z,14.92
2023-01-08T14:33:04.108Z,14.79
2023-01-08T14:38:13.696Z,14.70
2023-01-08T14:43:21.515Z,14.59
2023-01-08T14:48:36.771Z,14.48
2023-01-08T14:53:45.990Z,14.39
2023-01-08T14:58:49.640Z,14.27
2023-01-08T15:04:05.943Z,14.14
2023-01-08T15:09:31.619Z,14.02
2023-01-08T15:14:35.152Z,13.94
2023-01-08T15:19:59.646Z,13.88
2023-01-08T15:25:07.010Z,13.83
2023-01-08T15:30:46.336Z,13.78
2023-01-08T15:35:51.224Z,13.72
2023-01-08T15:40:55.450Z,13.66
2023-01-08T15:45:58.944Z,13.65
2023-01-08T15:51:02.307Z,13.60
2023-01-08T15:56:05.925Z,13.56
2023-01-08T16:01:10.057Z,13.50
2023-01-08T16:06:13.710Z,13.48
2023-01-08T16:11:19.461Z,13.44
2023-01-08T16:16:24.569Z,13.42
2023-01-08T16:21:31.198Z,13.37
2023-01-08T16:26:35.182Z,13.37
2023-01-08T16:31:40.084Z,13.36
2023-01-08T16:36:43.552Z,13.32
2023-01-08T16:41:50.073Z,13.29
2023-01-08T16:46:53.782Z,13.26
2023-01-08T16:51:58.004Z,13.23
2023-01-08T16:57:02.672Z,13.25
2023-01-08T17:02:07.180Z,13.23
2023-01-08T17:07:14.217Z,13.23
2023-01-08T17:12:18.519Z,13.20
2023-01-08T17:17:27.995Z,13.14
2023-01-08T17:22:35.982Z,13.11
2023-01-08T17:27:39.435Z,13.08
2023-01-08T17:32:47.059Z,13.07
2023-01-08T17:37:53.308Z,13.05
2023-01-08T17:42:57.152Z,13.02
2023-01-08T17:48:04.018Z,13.01
2023-01-08T17:53:07.519Z,12.99
2023-01-08T17:58:14.527Z,12.99
2023-01-08T18:03:18.138Z,12.96
2023-01-08T18:08:21.528Z,12.90
2023-01-08T18:13:24.893Z,12.89
2023-01-08T18:18:28.406Z,12.87
2023-01-08T18:23:32.568Z,12.82
2023-01-08T18:28:36.913Z,12.77
2023-01-08T18:33:40.891Z,12.73
2023-01-08T18:38:45.131Z,12.68
2023-01-08T18:43:48.563Z,12.64
2023-01-08T18:48:58.341Z,12.62
2023-01-08T18:54:02.508Z,12.60
2023-01-08T18:59:07.865Z,12.61
2023-01-08T19:04:16.465Z,12.63
2023-01-08T19:09:22.655Z,12.68
2023-01-08T19:14:26.497Z,12.71
2023-01-08T19:19:30.070Z,12.72
2023-01-08T19:24:33.220Z,12.68
2023-01-08T19:29:37.155Z,12.69
2023-01-08T19:34:41.287Z,12.70
2023-01-08T19:39:44.664Z,12.73
2023-01-08T19:44:49.882Z,12.75
2023-01-08T19:49:53.311Z,12.74
2023-01-08T19:54:56.697Z,12.68
2023-01-08T20:00:00.510Z,12.61
2023-01-08T20:05:06.147Z,12.52
2023-01-08T20:10:14.018Z,12.42
2023-01-08T20:15:17.572Z,12.33
2023-01-08T20:20:21.244Z,12.25
2023-01-08T20:25:24.651Z,12.22
2023-01-08T20:30:28.355Z,12.19
2023-01-08T20:35:31.868Z,12.17
2023-01-08T20:40:37.648Z,12.15
2023-01-08T20:45:44.951Z,12.15
2023-01-08T20:50:59.143Z,12.14
2023-01-08T20:56:12.254Z,12.14
2023-01-08T21:01:19.058Z,12.13
2023-01-08T21:06:27.614Z,12.14
2023-01-08T21:11:33.491Z,12.18
2023-01-08T21:16:38.022Z,12.28
2023-01-08T21:21:41.708Z,12.33
2023-01-08T21:26:46.970Z,12.34
2023-01-08T21:31:50.890Z,12.30
2023-01-08T21:36:54.459Z,12.24
2023-01-08T21:42:00.435Z,12.17
2023-01-08T21:47:07.146Z,12.12
2023-01-08T21:52:16.954Z,12.08
2023-01-08T21:57:21.024Z,12.06
2023-01-08T22:02:25.346Z,11.98
2023-01-08T22:07:34.213Z,11.91
2023-01-08T22:12:42.330Z,11.90
2023-01-08T22:17:45.843Z,11.88
2023-01-08T22:22:53.430Z,11.86
2023-01-08T22:28:00.329Z,11.88
2023-01-08T22:33:03.669Z,11.88
2023-01-08T22:38:07.080Z,11.90
2023-01-08T22:43:10.248Z,11.91
2023-01-08T22:48:13.549Z,11.95
2023-01-08T22:53:23.322Z,11.97
2023-01-08T22:58:32.082Z,11.87
2023-01-08T23:03:35.441Z,11.30
2023-01-08T23:08:40.036Z,11.16
2023-01-08T23:13:45.323Z,11.13
2023-01-08T23:18:48.716Z,11.22
2023-01-08T23:23:52.204Z,11.48
2023-01-08T23:28:57.485Z,11.70
2023-01-08T23:34:00.930Z,11.81
2023-01-08T23:39:05.082Z,11.90
2023-01-08T23:44:14.967Z,11.93
2023-01-08T23:49:18.442Z,11.94
2023-01-08T23:54:22.149Z,11.93
2023-01-08T23:59:26.890Z,11.91
